Time;durP1;ratioP1;P1;durP2;ratioP2;P2;SDS_P1;SDS_P2;PMS_P1;PMS_P2;Temp;Humidity;BMP_temperature;BMP_pressure;BME280_temperature;BME280_humidity;BME280_pressure;Samples;Min_cycle;Max_cycle;Signal;HPM_P1;HPM_P2
2023/01/18 00:01:10;;;;;;;9.33;8.53;;;;;;;-0.67;100.00;94094.59;4990173;28;20204;-64
2023/01/18 00:03:39;;;;;;;10.70;9.70;;;;;;;-0.68;100.00;94096.38;5012808;28;20219;-66
2023/01/18 00:06:08;;;;;;;8.53;7.90;;;;;;;-0.78;100.00;94080.31;5012650;28;20611;-65
2023/01/18 00:08:37;;;;;;;8.47;7.80;;;;;;;-0.78;100.00;94088.13;5003927;28;20232;-64
2023/01/18 00:11:06;;;;;;;9.30;8.37;;;;;;;-0.83;100.00;94080.09;5018465;28;20253;-65
2023/01/18 00:13:34;;;;;;;8.93;8.00;;;;;;;-0.92;100.00;94071.63;5018731;28;20450;-65
2023/01/18 00:16:03;;;;;;;7.97;7.27;;;;;;;-0.86;100.00;94078.66;5014417;28;20196;-64
2023/01/18 00:18:34;;;;;;;7.70;7.00;;;;;;;-0.91;100.00;94079.25;4976915;28;20364;-66
2023/01/18 00:21:02;;;;;;;7.73;6.83;;;;;;;-0.85;100.00;94071.69;5017496;28;20664;-64
2023/01/18 00:23:30;;;;;;;7.87;7.13;;;;;;;-0.92;100.00;94077.63;4998950;28;20880;-67
2023/01/18 00:25:59;;;;;;;6.83;6.23;;;;;;;-0.89;100.00;94081.63;5023893;28;20638;-64
2023/01/18 00:28:27;;;;;;;7.97;7.27;;;;;;;-0.91;100.00;94083.63;5024321;28;20223;-66
2023/01/18 00:30:54;;;;;;;8.13;7.43;;;;;;;-0.89;100.00;94079.03;5019109;28;20215;-64
2023/01/18 00:33:22;;;;;;;9.70;8.83;;;;;;;-0.90;100.00;94078.25;4972995;28;20220;-63
2023/01/18 00:36:02;;;;;;;9.63;8.80;;;;;;;-0.95;100.00;94082.41;5015247;28;20208;-66
2023/01/18 00:38:29;;;;;;;9.20;8.40;;;;;;;-0.98;100.00;94069.78;5012918;28;20212;-68
2023/01/18 00:40:57;;;;;;;9.30;8.50;;;;;;;-0.94;100.00;94081.41;5004809;28;20212;-65
2023/01/18 00:43:39;;;;;;;10.63;9.73;;;;;;;-1.02;100.00;94090.94;5017939;28;20241;-65
2023/01/18 00:46:08;;;;;;;9.30;8.50;;;;;;;-0.93;100.00;94083.84;5019155;28;20275;-64
2023/01/18 00:48:37;;;;;;;9.93;9.13;;;;;;;-0.91;100.00;94094.03;4970946;28;20220;-66
2023/01/18 00:51:07;;;;;;;9.93;9.03;;;;;;;-1.03;100.00;94084.16;5026668;28;20217;-65
2023/01/18 00:53:36;;;;;;;8.37;7.57;;;;;;;-1.00;100.00;94085.56;5023400;28;20606;-66
2023/01/18 00:56:05;;;;;;;8.93;8.10;;;;;;;-1.00;100.00;94075.16;5008291;28;20212;-64
2023/01/18 00:58:33;;;;;;;8.57;7.87;;;;;;;-0.97;100.00;94079.97;5021014;28;20230;-64
2023/01/18 01:01:00;;;;;;;8.87;7.97;;;;;;;-0.99;100.00;94079.34;5021011;28;20233;-64
2023/01/18 01:06:42;;;;;;;8.30;7.63;;;;;;;-0.98;100.00;94077.59;4980734;28;20837;-66
2023/01/18 01:06:44;;;;;;;9.30;8.50;;;;;;;-1.02;100.00;94083.16;5021106;28;20703;-65
2023/01/18 01:09:15;;;;;;;9.17;8.37;;;;;;;-0.91;100.00;94081.03;5023087;28;20891;-64
2023/01/18 01:12:31;;;;;;;9.27;8.47;;;;;;;-0.97;100.00;94082.56;5009741;28;20302;-66
2023/01/18 01:28:21;;;;;;;8.33;7.57;;;;;;;-1.04;100.00;94105.13;5004318;28;20287;-65
2023/01/18 01:30:49;;;;;;;8.63;7.77;;;;;;;-0.98;100.00;94106.97;5020916;28;20502;-66
2023/01/18 01:33:17;;;;;;;8.93;8.13;;;;;;;-0.98;100.00;94103.56;5019677;28;20281;-66
2023/01/18 01:35:44;;;;;;;9.67;7.73;;;;;;;-1.00;100.00;94106.34;4984878;28;20223;-65
2023/01/18 01:38:13;;;;;;;8.00;7.30;;;;;;;-1.01;100.00;94107.34;5017686;28;20220;-65
2023/01/18 01:40:41;;;;;;;7.67;7.17;;;;;;;-0.96;100.00;94117.97;5019758;28;20196;-65
2023/01/18 01:43:12;;;;;;;9.17;8.27;;;;;;;-1.08;100.00;94115.09;5003118;28;20809;-64
2023/01/18 01:45:39;;;;;;;8.37;7.57;;;;;;;-1.02;100.00;94116.94;5021946;28;20200;-64
2023/01/18 01:48:08;;;;;;;8.03;7.40;;;;;;;-0.92;100.00;94113.22;5021983;28;20255;-64
2023/01/18 01:50:38;;;;;;;8.57;7.83;;;;;;;-0.91;100.00;94120.84;4977670;28;20745;-64
2023/01/18 01:53:06;;;;;;;9.57;8.67;;;;;;;-0.88;100.00;94104.03;5024257;28;20212;-65
2023/01/18 01:55:36;;;;;;;8.70;8.00;;;;;;;-0.81;100.00;94115.28;4965868;28;20219;-66
2023/01/18 01:58:07;;;;;;;9.37;8.47;;;;;;;-0.73;100.00;94103.94;5019574;28;20220;-66
2023/01/18 02:00:35;;;;;;;8.77;8.07;;;;;;;-0.69;100.00;94086.19;5014532;28;20200;-64
2023/01/18 02:03:04;;;;;;;10.20;9.20;;;;;;;-0.66;100.00;94093.59;5019820;28;20223;-65
2023/01/18 02:05:34;;;;;;;8.73;7.93;;;;;;;-0.70;100.00;94095.75;5025752;28;20226;-65
2023/01/18 02:08:03;;;;;;;8.90;8.10;;;;;;;-0.73;100.00;94098.75;5020917;28;20219;-66
2023/01/18 02:10:30;;;;;;;9.67;8.73;;;;;;;-0.70;100.00;94100.97;4968873;28;20236;-64
2023/01/18 02:13:00;;;;;;;9.67;8.77;;;;;;;-0.73;100.00;94094.38;5016585;28;20283;-66
2023/01/18 02:15:32;;;;;;;9.13;8.43;;;;;;;-0.81;100.00;94088.50;5013659;28;20195;-64
2023/01/18 02:18:13;;;;;;;9.30;8.50;;;;;;;-0.72;100.00;94102.94;5020230;28;20569;-64
2023/01/18 02:21:10;;;;;;;9.33;8.53;;;;;;;-0.77;100.00;94111.31;5015055;28;20303;-66
2023/01/18 02:24:12;;;;;;;8.27;7.57;;;;;;;-0.75;100.00;94117.16;5020058;28;20496;-65
2023/01/18 02:26:53;;;;;;;9.97;8.97;;;;;;;-0.88;100.00;94125.66;4953139;28;20618;-64
2023/01/18 02:29:29;;;;;;;9.60;8.70;;;;;;;-0.93;100.00;94117.63;5023344;28;20679;-64
2023/01/18 02:32:10;;;;;;;10.03;9.23;;;;;;;-0.89;100.00;94121.44;5007612;28;20199;-66
2023/01/18 02:34:40;;;;;;;9.50;8.37;;;;;;;-0.98;100.00;94121.75;5020865;28;20218;-66
2023/01/18 02:37:13;;;;;;;9.70;8.90;;;;;;;-1.02;100.00;94129.94;5016581;28;20247;-65
2023/01/18 02:39:51;;;;;;;9.63;8.87;;;;;;;-1.06;100.00;94127.88;5018641;28;20838;-65
2023/01/18 02:48:02;;;;;;;9.33;8.43;;;;;;;-1.00;100.00;94116.75;5004149;28;20729;-64
2023/01/18 02:50:29;;;;;;;10.10;9.20;;;;;;;-1.10;100.00;94121.47;5019245;28;20615;-65
2023/01/18 02:52:57;;;;;;;13.60;10.07;;;;;;;-1.16;100.00;94123.00;5018798;28;20203;-66
2023/01/18 02:55:33;;;;;;;12.27;10.97;;;;;;;-1.08;100.00;94129.88;5022149;28;20199;-66
2023/01/18 02:58:04;;;;;;;14.13;10.83;;;;;;;-1.19;100.00;94125.97;4977828;28;20243;-65
2023/01/18 03:00:34;;;;;;;18.10;12.70;;;;;;;-1.17;100.00;94124.00;5016321;28;20735;-64
2023/01/18 03:03:04;;;;;;;15.70;11.87;;;;;;;-1.12;100.00;94124.25;5001761;28;20614;-65
2023/01/18 03:05:33;;;;;;;12.87;11.57;;;;;;;-1.12;100.00;94131.22;5020812;28;20192;-64
2023/01/18 03:08:05;;;;;;;14.47;12.07;;;;;;;-1.07;100.00;94140.09;5016612;28;20223;-65
2023/01/18 03:10:34;;;;;;;17.27;12.43;;;;;;;-1.19;100.00;94137.19;5015741;28;20216;-64
2023/01/18 03:13:05;;;;;;;16.23;12.53;;;;;;;-1.33;100.00;94138.84;4977955;28;20219;-66
2023/01/18 03:15:39;;;;;;;16.00;12.73;;;;;;;-1.27;100.00;94144.28;5017600;28;20200;-65
2023/01/18 03:18:13;;;;;;;17.33;13.03;;;;;;;-1.23;100.00;94140.31;5004558;28;20338;-65
2023/01/18 03:20:45;;;;;;;17.63;13.73;;;;;;;-1.21;100.00;94136.56;5019480;28;20389;-65
2023/01/18 03:26:02;;;;;;;14.87;12.43;;;;;;;-1.23;100.00;94143.75;5018241;28;20323;-65
2023/01/18 03:34:19;;;;;;;17.43;14.07;;;;;;;-1.29;100.00;94139.28;4978500;28;20219;-65
2023/01/18 03:36:51;;;;;;;15.33;13.70;;;;;;;-1.14;100.00;94147.00;5019025;28;20584;-66
2023/01/18 03:39:24;;;;;;;16.47;13.67;;;;;;;-1.13;100.00;94143.44;5020255;28;20847;-65
2023/01/18 03:41:54;;;;;;;16.63;13.70;;;;;;;-1.14;100.00;94146.22;5024896;28;20208;-66
2023/01/18 03:44:26;;;;;;;16.80;15.07;;;;;;;-1.19;100.00;94144.97;4976725;28;20307;-65
2023/01/18 03:46:56;;;;;;;15.77;14.07;;;;;;;-1.18;100.00;94159.56;4989720;28;20923;-67
2023/01/18 03:49:24;;;;;;;15.37;13.77;;;;;;;-1.14;100.00;94167.00;4997962;28;20218;-64
2023/01/18 03:52:00;;;;;;;15.93;14.37;;;;;;;-1.20;100.00;94166.75;5016099;28;20342;-64
2023/01/18 03:54:33;;;;;;;18.03;13.70;;;;;;;-1.21;100.00;94175.53;5017278;28;20200;-65
2023/01/18 03:57:03;;;;;;;16.63;13.67;;;;;;;-1.21;100.00;94170.34;5018064;28;20203;-66
2023/01/18 03:59:34;;;;;;;17.60;15.20;;;;;;;-1.22;100.00;94176.53;4975755;28;20377;-64
2023/01/18 04:02:05;;;;;;;16.77;14.97;;;;;;;-1.27;100.00;94167.66;5003308;28;20457;-64
2023/01/18 04:04:32;;;;;;;15.97;14.40;;;;;;;-1.21;100.00;94166.94;4994167;28;20537;-63
2023/01/18 04:07:00;;;;;;;17.47;15.67;;;;;;;-1.23;100.00;94168.91;5017682;28;20210;-64
2023/01/18 04:09:28;;;;;;;14.73;13.27;;;;;;;-1.28;100.00;94177.28;5021947;28;20699;-65
2023/01/18 04:11:55;;;;;;;15.30;13.80;;;;;;;-1.39;100.00;94181.16;5019134;28;20622;-65
2023/01/18 04:14:23;;;;;;;14.90;13.50;;;;;;;-1.46;100.00;94172.50;5019280;28;20199;-65
2023/01/18 04:16:50;;;;;;;14.43;13.10;;;;;;;-1.42;100.00;94189.31;5018481;28;20303;-64
2023/01/18 04:19:19;;;;;;;14.67;13.17;;;;;;;-1.44;100.00;94183.50;4973604;28;20416;-64
2023/01/18 04:21:47;;;;;;;14.10;12.60;;;;;;;-1.46;100.00;94185.47;5015054;28;20215;-65
2023/01/18 04:24:16;;;;;;;13.77;12.37;;;;;;;-1.48;100.00;94177.06;5020972;28;20234;-63
2023/01/18 04:26:43;;;;;;;14.57;13.03;;;;;;;-1.44;100.00;94193.06;5024501;28;20212;-65
2023/01/18 04:29:11;;;;;;;14.67;13.37;;;;;;;-1.41;100.00;94196.13;5019254;28;20220;-66
2023/01/18 04:31:38;;;;;;;14.83;13.37;;;;;;;-1.51;100.00;94196.41;5025593;28;20232;-67
2023/01/18 04:34:06;;;;;;;13.47;12.23;;;;;;;-1.62;100.00;94186.50;4998891;28;20579;-64
2023/01/18 04:36:35;;;;;;;14.77;13.33;;;;;;;-1.54;100.00;94198.53;5010255;28;20234;-64
2023/01/18 04:39:03;;;;;;;14.30;12.90;;;;;;;-1.62;100.00;94196.88;5026562;28;20219;-64
2023/01/18 04:41:30;;;;;;;15.90;14.33;;;;;;;-1.66;100.00;94200.81;5021838;28;20197;-65
2023/01/18 04:43:58;;;;;;;16.30;14.60;;;;;;;-1.55;100.00;94196.94;5028577;28;20218;-63
2023/01/18 04:46:26;;;;;;;17.60;15.70;;;;;;;-1.58;100.00;94195.53;5022227;28;20599;-64
2023/01/18 04:48:53;;;;;;;16.47;14.63;;;;;;;-1.48;100.00;94206.41;5020352;28;20666;-65
2023/01/18 04:51:22;;;;;;;16.33;14.67;;;;;;;-1.43;100.00;94212.84;4979952;28;20418;-65
2023/01/18 04:53:51;;;;;;;15.67;14.17;;;;;;;-1.54;100.00;94209.75;4999802;28;20203;-64
2023/01/18 04:56:19;;;;;;;15.53;14.13;;;;;;;-1.54;100.00;94208.94;5022506;28;20208;-63
2023/01/18 04:58:47;;;;;;;15.40;13.67;;;;;;;-1.52;100.00;94202.59;5024871;28;20227;-65
2023/01/18 05:01:15;;;;;;;15.83;14.33;;;;;;;-1.50;100.00;94215.41;5024043;28;20227;-65
2023/01/18 05:03:43;;;;;;;15.70;14.13;;;;;;;-1.58;100.00;94211.09;5023778;28;20595;-65
2023/01/18 05:06:13;;;;;;;16.43;14.83;;;;;;;-1.46;100.00;94209.63;4979216;28;20223;-65
2023/01/18 05:08:40;;;;;;;15.00;13.33;;;;;;;-1.44;100.00;94208.66;5020647;28;20634;-67
2023/01/18 05:11:11;;;;;;;14.20;12.87;;;;;;;-1.35;100.00;94215.34;5018063;28;20224;-64
2023/01/18 05:13:39;;;;;;;16.43;14.83;;;;;;;-1.44;100.00;94206.88;5022485;28;20228;-66
2023/01/18 05:16:08;;;;;;;14.90;13.60;;;;;;;-1.38;100.00;94207.91;5020030;28;20505;-64
2023/01/18 05:18:35;;;;;;;15.73;14.23;;;;;;;-1.39;100.00;94214.09;5008273;28;20227;-64
2023/01/18 05:21:03;;;;;;;17.43;15.73;;;;;;;-1.39;100.00;94214.91;4972644;28;20331;-66
2023/01/18 05:23:31;;;;;;;14.60;13.30;;;;;;;-1.35;100.00;94217.94;5016055;28;20311;-64
2023/01/18 05:25:59;;;;;;;14.43;13.13;;;;;;;-1.38;100.00;94203.53;5011749;28;20432;-66
2023/01/18 05:28:28;;;;;;;14.50;13.13;;;;;;;-1.36;100.00;94208.53;5021554;28;20436;-64
2023/01/18 05:30:55;;;;;;;15.93;14.27;;;;;;;-1.50;100.00;94211.00;5022009;28;20775;-66
2023/01/18 05:33:23;;;;;;;15.30;13.70;;;;;;;-1.47;100.00;94222.81;5025821;28;20201;-66
2023/01/18 05:35:52;;;;;;;14.50;13.00;;;;;;;-1.47;100.00;94235.81;4997883;28;20263;-66
2023/01/18 05:38:20;;;;;;;16.20;13.90;;;;;;;-1.56;100.00;94248.06;4985477;28;20926;-64
2023/01/18 05:40:51;;;;;;;14.80;13.37;;;;;;;-1.55;100.00;94244.50;5005497;28;20202;-66
2023/01/18 05:43:19;;;;;;;14.80;13.40;;;;;;;-1.54;100.00;94256.50;5023401;28;20199;-64
2023/01/18 05:45:48;;;;;;;14.77;13.37;;;;;;;-1.45;100.00;94259.81;5021202;28;20199;-65
2023/01/18 05:48:16;;;;;;;13.67;12.47;;;;;;;-1.61;100.00;94258.19;5023250;28;20231;-64
2023/01/18 05:50:45;;;;;;;13.90;12.60;;;;;;;-1.57;100.00;94254.25;5019434;28;20225;-66
2023/01/18 05:53:15;;;;;;;14.17;12.87;;;;;;;-1.50;100.00;94256.94;4980275;28;20216;-64
2023/01/18 05:55:42;;;;;;;15.27;13.70;;;;;;;-1.50;100.00;94259.53;5005794;28;20235;-66
2023/01/18 05:58:10;;;;;;;15.00;13.43;;;;;;;-1.55;100.00;94267.03;5024772;28;20232;-64
2023/01/18 06:00:38;;;;;;;14.10;12.60;;;;;;;-1.56;100.00;94273.22;5020198;28;20215;-63
2023/01/18 06:03:06;;;;;;;16.03;13.77;;;;;;;-1.51;100.00;94271.72;5025189;28;20636;-66
2023/01/18 06:05:37;;;;;;;15.43;13.83;;;;;;;-1.53;100.00;94271.09;5021944;28;20365;-64
2023/01/18 06:08:05;;;;;;;15.43;13.83;;;;;;;-1.47;100.00;94275.56;4981896;28;20707;-66
2023/01/18 06:10:32;;;;;;;14.37;12.97;;;;;;;-1.45;100.00;94290.97;4955327;28;20239;-66
2023/01/18 06:13:00;;;;;;;16.33;13.87;;;;;;;-1.50;100.00;94288.91;5019240;28;20200;-64
2023/01/18 06:15:28;;;;;;;16.47;14.87;;;;;;;-1.54;100.00;94286.84;5020476;28;20665;-64
2023/01/18 06:17:55;;;;;;;14.87;13.30;;;;;;;-1.52;100.00;94295.25;4997549;28;20306;-64
2023/01/18 06:20:25;;;;;;;13.93;12.63;;;;;;;-1.50;100.00;94290.72;5019774;28;20210;-65
2023/01/18 06:22:53;;;;;;;14.17;12.90;;;;;;;-1.51;100.00;94299.47;5020557;28;20207;-64
2023/01/18 06:25:20;;;;;;;14.20;12.83;;;;;;;-1.55;100.00;94306.00;4975814;28;20577;-66
2023/01/18 06:27:48;;;;;;;15.23;13.73;;;;;;;-1.64;100.00;94287.91;5019068;28;20717;-66
2023/01/18 06:30:17;;;;;;;13.73;12.33;;;;;;;-1.65;100.00;94278.53;5019183;28;20399;-66
2023/01/18 06:32:44;;;;;;;15.00;13.50;;;;;;;-1.77;100.00;94285.94;5004358;28;20592;-66
2023/01/18 06:35:12;;;;;;;15.33;13.73;;;;;;;-1.76;100.00;94289.34;5018331;28;20208;-68
2023/01/18 06:37:41;;;;;;;16.53;14.93;;;;;;;-1.75;100.00;94311.75;5017989;28;20226;-67
2023/01/18 06:40:10;;;;;;;14.83;13.17;;;;;;;-1.62;100.00;94313.72;4974652;28;20607;-68
2023/01/18 06:42:37;;;;;;;14.97;13.33;;;;;;;-1.57;100.00;94313.97;5022346;28;20488;-68
2023/01/18 06:45:06;;;;;;;15.80;14.10;;;;;;;-1.53;100.00;94311.81;5013190;28;20216;-68
2023/01/18 06:47:33;;;;;;;15.90;13.83;;;;;;;-1.56;100.00;94312.19;5004874;28;20449;-68
2023/01/18 06:50:01;;;;;;;15.93;13.93;;;;;;;-1.54;100.00;94318.81;5017500;28;20667;-65
2023/01/18 06:52:28;;;;;;;13.73;12.33;;;;;;;-1.51;100.00;94323.66;5025457;28;20243;-68
2023/01/18 06:54:58;;;;;;;15.43;13.83;;;;;;;-1.54;100.00;94307.59;4987643;28;20607;-66
2023/01/18 06:57:26;;;;;;;14.90;13.40;;;;;;;-1.49;100.00;94318.28;5021292;28;20513;-68
2023/01/18 06:59:54;;;;;;;15.23;13.10;;;;;;;-1.58;100.00;94320.16;5019609;28;20203;-66
2023/01/18 07:02:21;;;;;;;15.33;13.83;;;;;;;-1.57;100.00;94334.75;5017768;28;20294;-68
2023/01/18 07:04:49;;;;;;;14.17;12.77;;;;;;;-1.54;100.00;94330.97;5004335;28;20242;-65
2023/01/18 07:07:16;;;;;;;15.83;14.13;;;;;;;-1.51;100.00;94339.22;5020229;28;20555;-66
2023/01/18 07:09:44;;;;;;;14.90;13.47;;;;;;;-1.47;100.00;94339.69;5023425;28;20200;-65
2023/01/18 07:12:13;;;;;;;16.10;14.33;;;;;;;-1.53;100.00;94341.19;4973958;28;20278;-68
2023/01/18 07:14:41;;;;;;;16.37;14.43;;;;;;;-1.56;100.00;94345.94;5019453;28;20233;-66
2023/01/18 07:17:08;;;;;;;16.40;14.80;;;;;;;-1.70;100.00;94340.56;5020562;28;20423;-68
2023/01/18 07:19:36;;;;;;;17.13;14.57;;;;;;;-1.73;100.00;94347.88;5001818;28;20631;-67
2023/01/18 07:22:03;;;;;;;16.40;14.57;;;;;;;-1.71;100.00;94349.34;5013816;28;20986;-67
2023/01/18 07:24:31;;;;;;;17.73;15.27;;;;;;;-1.62;100.00;94357.84;5021737;28;20396;-66
2023/01/18 07:26:59;;;;;;;16.47;14.00;;;;;;;-1.63;100.00;94357.03;4975429;28;20207;-65
2023/01/18 07:29:28;;;;;;;16.70;14.90;;;;;;;-1.54;100.00;94360.38;5021099;28;20211;-67
2023/01/18 07:31:56;;;;;;;17.10;15.30;;;;;;;-1.58;100.00;94353.91;5016181;28;20856;-65
2023/01/18 07:34:24;;;;;;;19.13;16.73;;;;;;;-1.59;100.00;94360.09;5019619;28;20206;-64
2023/01/18 07:36:51;;;;;;;20.67;15.33;;;;;;;-1.57;100.00;94365.91;4997125;28;20219;-65
2023/01/18 07:39:19;;;;;;;17.90;16.10;;;;;;;-1.52;100.00;94368.78;5025001;28;20775;-67
2023/01/18 07:41:47;;;;;;;17.07;15.33;;;;;;;-1.44;100.00;94372.28;5011070;28;20203;-66
2023/01/18 07:44:15;;;;;;;18.03;16.10;;;;;;;-1.41;100.00;94379.69;4990718;28;20679;-68
2023/01/18 07:46:44;;;;;;;18.00;15.57;;;;;;;-1.42;100.00;94375.50;5015878;28;20608;-66
2023/01/18 07:49:12;;;;;;;18.57;15.93;;;;;;;-1.39;100.00;94382.94;5013753;28;20235;-67
2023/01/18 07:51:40;;;;;;;19.40;16.90;;;;;;;-1.43;100.00;94387.69;5001919;28;21272;-66
2023/01/18 07:54:07;;;;;;;19.50;16.57;;;;;;;-1.40;100.00;94391.72;5021191;28;20367;-67
2023/01/18 07:56:35;;;;;;;18.47;16.57;;;;;;;-1.43;100.00;94376.47;5022916;28;20457;-66
2023/01/18 07:59:02;;;;;;;23.07;17.27;;;;;;;-1.37;100.00;94392.16;4972802;28;20231;-65
2023/01/18 08:01:31;;;;;;;19.20;17.20;;;;;;;-1.20;100.00;94403.19;5017192;28;20380;-65
2023/01/18 08:04:00;;;;;;;21.50;17.47;;;;;;;-1.22;100.00;94412.13;5019658;28;20613;-66
2023/01/18 08:06:27;;;;;;;20.80;17.70;;;;;;;-1.19;100.00;94404.81;5004757;28;20209;-67
2023/01/18 08:08:55;;;;;;;20.40;17.67;;;;;;;-0.89;100.00;94407.41;5010629;28;20679;-65
2023/01/18 08:11:23;;;;;;;21.40;19.10;;;;;;;-0.81;100.00;94405.69;5022775;28;20244;-66
2023/01/18 08:13:51;;;;;;;20.87;18.60;;;;;;;-0.80;100.00;94402.88;4970356;28;20228;-66
2023/01/18 08:16:19;;;;;;;22.73;18.13;;;;;;;-0.71;100.00;94410.59;5021584;28;20611;-68
2023/01/18 08:18:48;;;;;;;25.50;19.10;;;;;;;-0.91;100.00;94418.94;4978183;28;20336;-67
2023/01/18 08:21:17;;;;;;;24.93;19.50;;;;;;;-0.80;100.00;94417.69;5022947;28;20211;-68
2023/01/18 08:23:45;;;;;;;22.80;18.30;;;;;;;-0.83;100.00;94416.25;5015271;28;20200;-65
2023/01/18 08:26:13;;;;;;;23.67;19.03;;;;;;;-0.77;100.00;94412.91;5021190;28;20551;-66
2023/01/18 08:28:43;;;;;;;21.43;17.57;;;;;;;-0.64;100.00;94420.06;5020398;28;20376;-66
2023/01/18 08:31:12;;;;;;;21.80;17.63;;;;;;;-0.65;100.00;94421.06;5018640;28;20660;-65
2023/01/18 08:33:44;;;;;;;19.90;17.77;;;;;;;-0.74;100.00;94420.38;4972896;28;20325;-64
2023/01/18 08:36:13;;;;;;;22.27;19.17;;;;;;;-0.77;100.00;94419.91;5020152;28;20663;-65
2023/01/18 08:38:43;;;;;;;23.40;18.93;;;;;;;-0.73;100.00;94428.97;5014645;28;20508;-65
2023/01/18 08:41:10;;;;;;;20.17;18.00;;;;;;;-0.82;100.00;94430.84;5024240;28;20579;-66
2023/01/18 08:43:38;;;;;;;19.73;16.93;;;;;;;-0.65;100.00;94430.66;5018448;28;20201;-65
2023/01/18 08:46:05;;;;;;;18.70;16.73;;;;;;;-0.60;100.00;94436.13;5013634;28;20359;-65
2023/01/18 08:48:33;;;;;;;19.60;17.50;;;;;;;-0.60;100.00;94438.72;4974428;28;20236;-65
2023/01/18 08:51:01;;;;;;;21.70;17.87;;;;;;;-0.52;100.00;94436.00;5020245;28;20218;-66
2023/01/18 08:53:29;;;;;;;21.57;19.07;;;;;;;-0.42;100.00;94445.31;5021046;28;20507;-65
2023/01/18 08:55:58;;;;;;;23.83;19.60;;;;;;;-0.48;100.00;94449.47;5016532;28;20333;-64
2023/01/18 08:58:26;;;;;;;21.97;17.90;;;;;;;-0.42;100.00;94446.13;5020815;28;20776;-65
2023/01/18 09:00:54;;;;;;;22.87;18.00;;;;;;;-0.27;100.00;94443.50;5014689;28;20570;-64
2023/01/18 09:03:21;;;;;;;21.60;17.93;;;;;;;-0.17;100.00;94453.63;4974612;28;20385;-65
2023/01/18 09:05:49;;;;;;;23.20;18.70;;;;;;;-0.45;100.00;94465.50;5014853;28;20482;-65
2023/01/18 09:08:17;;;;;;;19.50;16.20;;;;;;;-0.39;100.00;94470.97;5023655;28;20215;-66
2023/01/18 09:10:45;;;;;;;22.57;18.20;;;;;;;-0.45;100.00;94472.53;5019835;28;20305;-63
2023/01/18 09:13:13;;;;;;;19.00;16.93;;;;;;;-0.52;100.00;94469.03;5022307;28;20631;-66
2023/01/18 09:15:41;;;;;;;19.00;16.83;;;;;;;-0.57;100.00;94484.34;5014936;28;20197;-66
2023/01/18 09:18:08;;;;;;;20.67;16.60;;;;;;;-0.66;100.00;94483.66;5021288;28;20247;-66
2023/01/18 09:20:36;;;;;;;21.93;18.30;;;;;;;-0.57;100.00;94492.97;4977881;28;20309;-64
2023/01/18 09:23:04;;;;;;;21.67;17.83;;;;;;;-0.49;100.00;94492.09;5020874;28;20746;-65
2023/01/18 09:25:32;;;;;;;22.07;16.83;;;;;;;-0.59;100.00;94503.56;5021550;28;20200;-65
2023/01/18 09:28:01;;;;;;;20.33;18.23;;;;;;;-0.41;100.00;94499.78;5024375;28;20401;-67
2023/01/18 09:30:30;;;;;;;19.77;17.53;;;;;;;-0.36;100.00;94500.03;5026266;28;20195;-63
2023/01/18 09:32:58;;;;;;;21.10;17.33;;;;;;;-0.23;100.00;94495.97;5019987;28;20778;-66
2023/01/18 09:35:26;;;;;;;20.83;18.20;;;;;;;-0.19;100.00;94497.22;4979687;28;20227;-64
2023/01/18 09:37:54;;;;;;;18.83;16.00;;;;;;;-0.17;100.00;94506.47;5016905;28;20505;-64
2023/01/18 09:40:23;;;;;;;18.70;16.73;;;;;;;-0.10;100.00;94506.56;5021247;28;20211;-65
2023/01/18 09:42:52;;;;;;;19.53;16.53;;;;;;;-0.20;100.00;94512.03;5017119;28;20284;-65
2023/01/18 09:45:27;;;;;;;20.20;16.13;;;;;;;-0.16;100.00;94513.28;5022434;28;20203;-65
2023/01/18 09:48:01;;;;;;;18.30;16.23;;;;;;;-0.23;100.00;94516.78;5020440;28;20242;-66
2023/01/18 09:50:29;;;;;;;19.97;17.30;;;;;;;-0.37;100.00;94527.03;4979530;28;20214;-64
2023/01/18 09:53:03;;;;;;;19.93;16.40;;;;;;;-0.30;100.00;94527.13;5016358;28;20843;-65
2023/01/18 09:55:41;;;;;;;18.20;15.00;;;;;;;-0.26;100.00;94533.59;5021944;28;20204;-64
2023/01/18 09:58:19;;;;;;;17.97;15.53;;;;;;;-0.18;100.00;94532.69;5021039;28;20227;-64
2023/01/18 10:00:48;;;;;;;18.23;15.77;;;;;;;-0.22;100.00;94536.63;5016394;28;20302;-64
2023/01/18 10:03:19;;;;;;;19.57;15.77;;;;;;;-0.36;100.00;94539.06;5026646;28;20235;-65
2023/01/18 10:05:52;;;;;;;21.77;17.13;;;;;;;-0.47;100.00;94542.13;4978684;28;21322;-66
2023/01/18 10:08:23;;;;;;;16.53;14.70;;;;;;;-0.61;100.00;94541.94;5017563;28;20223;-64
2023/01/18 10:10:56;;;;;;;20.37;16.90;;;;;;;-0.65;100.00;94548.50;5020300;28;20233;-66
2023/01/18 10:13:36;;;;;;;19.83;16.70;;;;;;;-0.69;100.00;94542.03;5026076;28;20379;-64
2023/01/18 10:16:04;;;;;;;18.53;15.37;;;;;;;-0.59;100.00;94552.19;5019067;28;20211;-66
2023/01/18 10:18:38;;;;;;;16.87;14.60;;;;;;;-0.52;100.00;94547.06;5020100;28;20599;-64
2023/01/18 10:21:07;;;;;;;20.27;15.87;;;;;;;-0.61;100.00;94554.16;5020900;28;20206;-64
2023/01/18 10:23:40;;;;;;;18.10;16.07;;;;;;;-0.83;100.00;94548.03;4978241;28;20261;-66
2023/01/18 10:26:15;;;;;;;17.27;15.40;;;;;;;-0.69;100.00;94568.03;4967839;28;20527;-64
2023/01/18 10:28:47;;;;;;;18.40;15.47;;;;;;;-0.63;100.00;94564.72;5033100;28;20770;-66
2023/01/18 10:31:26;;;;;;;17.67;14.97;;;;;;;-0.60;100.00;94564.34;5046038;28;20202;-64
2023/01/18 10:33:57;;;;;;;17.43;15.47;;;;;;;-0.59;100.00;94571.19;5042224;28;20231;-65
2023/01/18 10:36:31;;;;;;;17.87;14.87;;;;;;;-0.56;100.00;94577.03;5022141;28;20432;-66
2023/01/18 10:39:03;;;;;;;17.03;15.23;;;;;;;-0.65;100.00;94582.28;5044698;28;20223;-64
2023/01/18 10:41:33;;;;;;;16.63;14.43;;;;;;;-0.53;100.00;94590.47;5001530;28;20309;-65
2023/01/18 10:44:01;;;;;;;16.60;14.03;;;;;;;-0.57;100.00;94594.41;5046783;28;20206;-64
2023/01/18 10:46:29;;;;;;;16.87;15.07;;;;;;;-0.60;100.00;94597.38;5043484;28;20202;-66
2023/01/18 10:48:58;;;;;;;16.47;14.77;;;;;;;-0.69;100.00;94599.25;5044332;28;20219;-65
2023/01/18 10:51:33;;;;;;;20.30;14.97;;;;;;;-0.68;100.00;94605.28;5044510;28;21025;-65
2023/01/18 10:54:21;;;;;;;17.60;15.27;;;;;;;-0.73;100.00;94609.22;5047328;28;20253;-66
2023/01/18 10:56:49;;;;;;;17.67;14.27;;;;;;;-0.62;100.00;94612.34;5000113;28;20770;-68
2023/01/18 10:59:25;;;;;;;15.40;13.67;;;;;;;-0.56;100.00;94600.44;5042773;28;20479;-65
2023/01/18 11:01:55;;;;;;;17.67;14.27;;;;;;;-0.49;100.00;94612.53;5040206;28;20199;-65
2023/01/18 11:04:27;;;;;;;15.90;13.73;;;;;;;-0.37;100.00;94615.50;5030767;28;20474;-64
2023/01/18 11:06:57;;;;;;;15.97;14.33;;;;;;;-0.39;100.00;94614.06;5040764;28;20823;-64
2023/01/18 11:09:40;;;;;;;15.67;13.97;;;;;;;-0.38;100.00;94624.31;5048670;28;20203;-66
2023/01/18 11:12:36;;;;;;;16.07;13.93;;;;;;;-0.34;100.00;94625.56;4998784;28;20913;-64
2023/01/18 11:15:28;;;;;;;16.23;14.53;;;;;;;-0.55;100.00;94626.25;5032986;28;20767;-62
2023/01/18 11:18:05;;;;;;;16.30;14.63;;;;;;;-0.60;100.00;94624.19;5021888;28;20234;-64
2023/01/18 11:20:37;;;;;;;16.17;14.07;;;;;;;-0.59;100.00;94627.59;5042760;28;20203;-67
2023/01/18 11:23:14;;;;;;;15.57;13.73;;;;;;;-0.60;100.00;94634.59;5037642;28;20394;-65
2023/01/18 11:25:52;;;;;;;18.37;14.73;;;;;;;-0.58;100.00;94639.63;5050247;28;20207;-68
2023/01/18 11:28:21;;;;;;;18.37;15.60;;;;;;;-0.62;100.00;94643.56;5002238;28;20416;-69
2023/01/18 11:30:54;;;;;;;15.00;13.40;;;;;;;-0.60;100.00;94645.00;5040835;28;20710;-67
2023/01/18 11:33:23;;;;;;;16.77;14.30;;;;;;;-0.65;100.00;94649.13;5029524;28;20413;-67
2023/01/18 11:35:58;;;;;;;15.77;14.17;;;;;;;-0.68;100.00;94654.69;5043424;28;20210;-67
2023/01/18 11:38:30;;;;;;;15.93;14.30;;;;;;;-0.54;100.00;94655.69;5037345;28;20231;-67
2023/01/18 11:41:07;;;;;;;16.93;14.60;;;;;;;-0.48;100.00;94658.38;5041442;28;20203;-65
2023/01/18 11:43:38;;;;;;;18.13;15.27;;;;;;;-0.32;100.00;94651.41;5001510;28;20407;-67
2023/01/18 11:46:18;;;;;;;16.97;15.13;;;;;;;-0.32;100.00;94652.22;5041986;28;20408;-65
2023/01/18 11:48:50;;;;;;;16.50;14.70;;;;;;;-0.36;100.00;94652.75;5040457;28;20218;-67
2023/01/18 11:51:22;;;;;;;16.40;14.70;;;;;;;-0.38;100.00;94652.94;5039445;28;20207;-67
2023/01/18 11:53:57;;;;;;;16.97;15.00;;;;;;;-0.44;100.00;94651.03;5044479;28;20211;-67